createdAt,value
2019-04-20T00:01:12.533Z,5.50
2019-04-20T00:03:42.311Z,10.97
2019-04-20T00:06:09.227Z,4.43
2019-04-20T00:08:41.066Z,11.37
2019-04-20T00:11:14.169Z,8.63
2019-04-20T00:13:47.748Z,7.83
2019-04-20T00:16:08.358Z,10.63
2019-04-20T00:18:43.094Z,8.43
2019-04-20T00:21:25.329Z,12.57
2019-04-20T00:23:54.835Z,8.03
2019-04-20T00:27:01.908Z,6.13
2019-04-20T00:29:20.207Z,12.83
2019-04-20T00:31:42.794Z,6.80
2019-04-20T00:34:07.895Z,9.67
2019-04-20T00:36:29.069Z,8.33
2019-04-20T00:39:01.318Z,11.40
2019-04-20T00:41:27.712Z,7.80
2019-04-20T00:43:57.783Z,9.23
2019-04-20T00:46:34.027Z,10.23
2019-04-20T00:49:06.961Z,10.67
2019-04-20T00:51:48.134Z,9.07
2019-04-20T00:53:58.576Z,8.07
2019-04-20T00:56:26.790Z,9.70
2019-04-20T00:59:12.204Z,8.43
2019-04-20T01:01:45.688Z,9.07
2019-04-20T01:04:14.822Z,9.97
2019-04-20T01:06:41.243Z,8.10
2019-04-20T01:08:59.209Z,10.83
2019-04-20T01:11:34.864Z,10.20
2019-04-20T01:14:03.013Z,11.90
2019-04-20T01:16:36.856Z,9.23
2019-04-20T01:18:57.801Z,13.20
2019-04-20T01:21:28.852Z,13.13
2019-04-20T01:24:01.113Z,13.63
2019-04-20T01:26:27.691Z,11.30
2019-04-20T01:29:09.128Z,11.43
2019-04-20T01:31:35.558Z,8.77
2019-04-20T01:34:05.612Z,7.60
2019-04-20T01:36:45.722Z,8.47
2019-04-20T01:39:07.556Z,10.17
2019-04-20T01:41:26.534Z,10.87
2019-04-20T01:43:54.895Z,8.90
2019-04-20T01:46:26.555Z,8.90
2019-04-20T01:48:54.751Z,8.90
2019-04-20T01:51:28.637Z,8.47
2019-04-20T01:54:07.086Z,10.83
2019-04-20T01:56:36.170Z,12.13
2019-04-20T01:59:21.423Z,10.83
2019-04-20T02:01:39.154Z,11.87
2019-04-20T02:04:23.798Z,6.57
2019-04-20T02:06:50.630Z,8.80
2019-04-20T02:09:19.124Z,9.97
2019-04-20T02:11:47.381Z,6.07
2019-04-20T02:14:24.251Z,11.23
2019-04-20T02:16:49.583Z,10.00
2019-04-20T02:19:33.395Z,6.97
2019-04-20T02:21:59.095Z,8.90
2019-04-20T02:24:16.149Z,8.50
2019-04-20T02:26:45.090Z,6.80
2019-04-20T02:29:36.063Z,7.27
2019-04-20T02:37:26.420Z,13.67
2019-04-20T02:39:58.307Z,16.07
2019-04-20T02:42:30.080Z,8.77
2019-04-20T02:45:00.847Z,9.53
2019-04-20T02:47:30.695Z,8.97
2019-04-20T02:49:50.906Z,10.37
2019-04-20T02:52:33.517Z,8.47
2019-04-20T02:54:54.964Z,13.43
2019-04-20T02:57:37.227Z,12.33
2019-04-20T03:02:13.352Z,11.33
2019-04-20T03:04:34.131Z,9.40
2019-04-20T03:07:09.421Z,13.57
2019-04-20T03:09:40.422Z,16.83
2019-04-20T03:12:18.742Z,9.40
2019-04-20T03:14:35.162Z,9.03
2019-04-20T03:17:15.291Z,9.43
2019-04-20T03:19:38.613Z,11.40
2019-04-20T03:22:13.821Z,9.50
2019-04-20T03:24:48.644Z,12.00
2019-04-20T03:27:12.385Z,13.37
2019-04-20T03:29:47.056Z,10.90
2019-04-20T03:37:26.709Z,17.13
2019-04-20T03:39:46.437Z,13.30
2019-04-20T03:42:00.939Z,12.97
2019-04-20T03:44:32.947Z,9.77
2019-04-20T03:47:04.610Z,12.70
2019-04-20T03:49:54.870Z,13.60
2019-04-20T03:52:36.260Z,13.43
2019-04-20T03:55:07.592Z,20.00
2019-04-20T03:57:43.428Z,13.40
2019-04-20T04:00:21.916Z,10.17
2019-04-20T04:03:15.993Z,11.33
2019-04-20T04:05:33.991Z,12.40
2019-04-20T04:07:52.423Z,10.50
2019-04-20T04:10:28.267Z,12.30
2019-04-20T04:13:09.779Z,11.63
2019-04-20T04:15:46.761Z,13.53
2019-04-20T04:18:17.240Z,17.87
2019-04-20T04:20:47.622Z,9.63
2019-04-20T04:23:24.937Z,13.23
2019-04-20T04:25:55.726Z,19.17
2019-04-20T04:28:25.164Z,13.50
2019-04-20T04:30:59.450Z,16.80
2019-04-20T04:35:59.194Z,15.83
2019-04-20T04:38:35.312Z,14.80
2019-04-20T04:41:09.619Z,16.87
2019-04-20T04:43:25.712Z,14.40
2019-04-20T04:45:40.557Z,14.90
2019-04-20T04:48:14.813Z,14.90
2019-04-20T04:50:49.674Z,15.47
2019-04-20T04:53:20.619Z,13.10
2019-04-20T04:55:50.070Z,17.93
2019-04-20T04:58:08.841Z,19.57
2019-04-20T05:00:38.834Z,17.63
2019-04-20T05:03:26.892Z,26.27
2019-04-20T05:06:03.809Z,17.73
2019-04-20T05:08:18.785Z,19.27
2019-04-20T05:10:41.626Z,18.13
2019-04-20T05:13:11.238Z,18.73
2019-04-20T05:15:53.952Z,20.17
2019-04-20T05:18:34.722Z,22.67
2019-04-20T05:20:58.852Z,17.80
2019-04-20T05:23:35.474Z,14.93
2019-04-20T05:26:22.681Z,20.57
2019-04-20T05:31:04.539Z,17.63
2019-04-20T05:33:48.834Z,19.80
2019-04-20T05:36:20.053Z,24.53
2019-04-20T05:38:54.610Z,18.57
2019-04-20T05:41:16.665Z,25.50
2019-04-20T05:43:56.332Z,24.60
2019-04-20T05:46:30.880Z,23.60
2019-04-20T05:49:03.294Z,19.93
2019-04-20T05:51:43.312Z,19.23
2019-04-20T05:54:02.580Z,18.60
2019-04-20T05:56:35.843Z,23.07
2019-04-20T05:58:59.525Z,28.33
2019-04-20T06:01:31.813Z,19.73
2019-04-20T06:03:58.287Z,20.33
2019-04-20T06:06:33.270Z,22.20
2019-04-20T06:09:05.807Z,16.63
2019-04-20T06:11:34.679Z,19.37
2019-04-20T06:13:54.537Z,21.13
2019-04-20T06:16:42.867Z,22.97
2019-04-20T06:19:18.842Z,20.43
2019-04-20T06:21:41.462Z,22.20
2019-04-20T06:24:26.528Z,18.30
2019-04-20T06:29:18.300Z,22.63
2019-04-20T06:31:53.366Z,14.03
2019-04-20T06:34:39.144Z,21.17
2019-04-20T06:37:07.135Z,19.57
2019-04-20T06:39:30.958Z,19.67
2019-04-20T06:42:15.224Z,22.95
2019-04-20T06:44:31.981Z,19.73
2019-04-20T06:47:15.816Z,24.10
2019-04-20T06:49:33.408Z,24.00
2019-04-20T06:52:04.596Z,17.87
2019-04-20T06:57:25.670Z,20.27
2019-04-20T06:59:52.534Z,21.97
2019-04-20T07:02:32.430Z,13.80
2019-04-20T07:07:23.923Z,19.87
2019-04-20T07:10:04.834Z,21.97
2019-04-20T07:12:19.392Z,20.07
2019-04-20T07:14:42.780Z,24.90
2019-04-20T07:17:35.991Z,26.37
2019-04-20T07:19:56.405Z,19.70
2019-04-20T07:22:33.761Z,20.63
2019-04-20T07:25:03.091Z,22.23
2019-04-20T07:27:30.804Z,19.33
2019-04-20T07:30:04.061Z,19.55
2019-04-20T07:32:23.697Z,20.85
2019-04-20T07:35:03.311Z,24.32
2019-04-20T07:40:05.621Z,15.55
2019-04-20T07:42:34.883Z,20.57
2019-04-20T07:45:07.432Z,22.98
2019-04-20T07:47:40.606Z,14.68
2019-04-20T07:50:03.700Z,16.42
2019-04-20T07:52:12.334Z,13.80
2019-04-20T07:55:18.309Z,17.75
2019-04-20T07:57:32.596Z,18.67
2019-04-20T07:59:59.139Z,16.75
2019-04-20T08:02:36.594Z,18.02
2019-04-20T08:05:05.718Z,15.88
2019-04-20T08:07:19.083Z,25.90
2019-04-20T08:09:53.232Z,15.55
2019-04-20T08:12:55.957Z,19.87
2019-04-20T08:15:34.055Z,23.60
2019-04-20T08:17:53.966Z,22.62
2019-04-20T08:20:23.424Z,20.27
2019-04-20T08:22:53.110Z,18.67
2019-04-20T08:25:13.748Z,17.57
2019-04-20T08:27:48.984Z,20.12
2019-04-20T08:30:38.437Z,17.45
2019-04-20T08:35:51.193Z,14.45
2019-04-20T08:38:56.030Z,27.82
2019-04-20T08:40:44.081Z,18.82
2019-04-20T08:43:34.192Z,16.30
2019-04-20T08:45:49.477Z,15.88
2019-04-20T08:48:18.947Z,25.00
2019-04-20T08:50:46.794Z,25.45
2019-04-20T08:53:20.693Z,17.35
2019-04-20T08:55:41.581Z,20.45
2019-04-20T08:57:56.579Z,26.70
2019-04-20T09:00:33.133Z,21.15
2019-04-20T09:03:02.355Z,18.75
2019-04-20T09:05:38.275Z,17.82
2019-04-20T09:08:05.425Z,21.93
2019-04-20T09:10:45.292Z,17.98
2019-04-20T09:13:08.483Z,18.42
2019-04-20T09:15:25.351Z,19.15
2019-04-20T09:18:03.746Z,18.27
2019-04-20T09:20:45.931Z,17.15
2019-04-20T09:23:19.918Z,19.07
2019-04-20T09:26:05.556Z,16.87
2019-04-20T09:28:25.526Z,21.80
2019-04-20T09:31:10.799Z,24.98
2019-04-20T09:36:24.231Z,20.37
2019-04-20T09:39:08.890Z,25.72
2019-04-20T09:41:54.832Z,21.00
2019-04-20T09:44:00.392Z,15.20
2019-04-20T09:46:30.908Z,18.50
2019-04-20T09:49:02.430Z,26.07
2019-04-20T09:51:46.237Z,21.60
2019-04-20T09:54:17.363Z,18.45
2019-04-20T09:56:48.368Z,24.15
2019-04-20T09:59:16.834Z,21.02
2019-04-20T10:01:35.114Z,15.20
2019-04-20T10:03:59.287Z,19.07
2019-04-20T10:06:30.730Z,17.40
2019-04-20T10:09:00.430Z,19.67
2019-04-20T10:11:27.676Z,15.88
2019-04-20T10:13:56.481Z,16.48
2019-04-20T10:16:26.021Z,17.82
2019-04-20T10:18:55.293Z,18.87
2019-04-20T10:21:24.017Z,16.50
2019-04-20T10:23:52.577Z,14.20
2019-04-20T10:26:20.884Z,17.75
2019-04-20T10:28:49.758Z,14.63
2019-04-20T10:31:18.160Z,18.60
2019-04-20T10:33:46.458Z,14.87
2019-04-20T10:36:33.365Z,18.07
2019-04-20T10:39:02.945Z,15.18
2019-04-20T10:41:40.882Z,20.80
2019-04-20T10:44:01.169Z,16.70
2019-04-20T10:46:29.429Z,11.50
2019-04-20T10:49:03.737Z,12.63
2019-04-20T10:51:27.668Z,16.77
2019-04-20T10:53:56.148Z,16.80
2019-04-20T10:56:25.375Z,14.83
2019-04-20T10:58:53.912Z,20.05
2019-04-20T11:01:22.203Z,17.10
2019-04-20T11:03:50.447Z,13.98
2019-04-20T11:06:18.703Z,12.47
2019-04-20T11:08:48.728Z,14.63
2019-04-20T11:11:23.843Z,11.20
2019-04-20T11:13:47.653Z,12.35
2019-04-20T11:16:16.049Z,14.80
2019-04-20T11:18:45.194Z,16.20
2019-04-20T11:21:13.595Z,13.55
2019-04-20T11:23:42.452Z,16.50
2019-04-20T11:26:10.840Z,13.18
2019-04-20T11:28:39.960Z,9.70
2019-04-20T11:31:08.392Z,12.40
2019-04-20T11:33:36.648Z,13.58
2019-04-20T11:36:05.228Z,13.50
2019-04-20T11:38:35.115Z,10.60
2019-04-20T11:41:11.178Z,15.58
2019-04-20T11:43:33.873Z,12.88
2019-04-20T11:46:02.778Z,11.73
2019-04-20T11:48:31.717Z,11.20
2019-04-20T11:51:01.398Z,13.72
2019-04-20T11:53:30.438Z,15.58
2019-04-20T11:55:58.780Z,20.55
2019-04-20T11:58:27.976Z,14.83
2019-04-20T12:01:03.937Z,13.03
2019-04-20T12:03:33.292Z,11.12
2019-04-20T12:06:02.743Z,11.97
2019-04-20T12:08:29.155Z,15.10
2019-04-20T12:11:00.330Z,14.50
2019-04-20T12:13:28.869Z,10.70
2019-04-20T12:15:57.448Z,12.05
2019-04-20T12:18:25.751Z,9.28
2019-04-20T12:20:54.853Z,13.22
2019-04-20T12:23:24.487Z,13.53
2019-04-20T12:25:54.208Z,13.62
2019-04-20T12:28:23.128Z,13.25
2019-04-20T12:30:51.568Z,15.40
2019-04-20T12:33:20.044Z,12.15
2019-04-20T12:35:48.286Z,15.15
2019-04-20T12:38:17.157Z,9.83
2019-04-20T12:40:46.181Z,15.60
2019-04-20T12:43:15.151Z,12.30
2019-04-20T12:45:44.142Z,16.35
2019-04-20T12:48:13.480Z,15.40
2019-04-20T12:50:43.765Z,12.88
2019-04-20T12:53:12.796Z,14.43
2019-04-20T12:55:41.544Z,11.90
2019-04-20T12:58:10.534Z,11.63
2019-04-20T13:00:50.127Z,10.68
2019-04-20T13:03:19.355Z,16.17
2019-04-20T13:05:47.945Z,11.83
2019-04-20T13:08:23.327Z,12.25
2019-04-20T13:10:48.677Z,13.32
2019-04-20T13:13:22.624Z,9.78
2019-04-20T13:18:25.413Z,8.65
2019-04-20T13:20:58.007Z,11.57
2019-04-20T13:23:24.774Z,11.10
2019-04-20T13:25:53.390Z,11.45
2019-04-20T13:28:21.645Z,11.15
2019-04-20T13:30:51.598Z,19.25
2019-04-20T13:33:19.867Z,18.50
2019-04-20T13:35:48.370Z,17.07
2019-04-20T13:38:16.676Z,11.65
2019-04-20T13:40:45.959Z,11.43
2019-04-20T13:43:14.717Z,8.73
2019-04-20T13:45:43.038Z,12.20
2019-04-20T13:48:11.344Z,11.38
2019-04-20T13:50:40.052Z,14.10
2019-04-20T13:53:09.611Z,10.93
2019-04-20T13:55:38.247Z,16.32
2019-04-20T13:58:17.946Z,12.63
2019-04-20T14:00:55.220Z,9.83
2019-04-20T14:03:27.005Z,11.18
2019-04-20T14:05:56.465Z,11.00
2019-04-20T14:08:27.404Z,10.38
2019-04-20T14:10:55.749Z,13.45
2019-04-20T14:13:25.738Z,8.68
2019-04-20T14:15:55.154Z,7.15
2019-04-20T14:18:24.954Z,9.08
2019-04-20T14:20:54.103Z,9.63
2019-04-20T14:23:23.211Z,12.00
2019-04-20T14:25:52.065Z,9.80
2019-04-20T14:28:20.913Z,10.13
2019-04-20T14:30:49.925Z,9.28
2019-04-20T14:33:18.932Z,6.87
2019-04-20T14:35:48.320Z,8.38
2019-04-20T14:38:17.599Z,5.90
2019-04-20T14:40:46.354Z,10.25
2019-04-20T14:43:15.122Z,7.87
2019-04-20T14:45:44.764Z,6.17
2019-04-20T14:48:13.577Z,5.53
2019-04-20T14:50:41.842Z,8.63
2019-04-20T14:53:11.466Z,8.78
2019-04-20T14:55:40.093Z,8.55
2019-04-20T14:58:11.243Z,6.65
2019-04-20T15:00:54.852Z,7.28
2019-04-20T15:03:38.345Z,8.68
2019-04-20T15:06:07.482Z,6.92
2019-04-20T15:08:36.787Z,8.73
2019-04-20T15:11:05.283Z,7.53
2019-04-20T15:13:34.937Z,7.95
2019-04-20T15:16:04.675Z,4.00
2019-04-20T15:18:35.575Z,6.58
2019-04-20T15:21:09.301Z,10.20
2019-04-20T15:23:37.933Z,10.38
2019-04-20T15:26:06.603Z,7.33
2019-04-20T15:28:36.491Z,11.68
2019-04-20T15:31:06.008Z,7.85
2019-04-20T15:33:34.857Z,6.53
2019-04-20T15:36:04.254Z,8.80
2019-04-20T15:38:33.291Z,9.20
2019-04-20T15:41:02.906Z,5.08
2019-04-20T15:43:31.304Z,4.33
2019-04-20T15:45:59.551Z,6.17
2019-04-20T15:48:28.150Z,10.70
2019-04-20T15:50:58.079Z,6.03
2019-04-20T15:53:26.842Z,7.70
2019-04-20T15:55:55.587Z,3.35
2019-04-20T15:58:23.976Z,6.05
2019-04-20T16:00:52.806Z,6.90
2019-04-20T16:03:32.990Z,5.95
2019-04-20T16:06:03.116Z,4.42
2019-04-20T16:08:34.600Z,6.35
2019-04-20T16:11:04.620Z,4.53
2019-04-20T16:13:38.096Z,9.53
2019-04-20T16:16:03.676Z,6.10
2019-04-20T16:18:32.862Z,6.75
2019-04-20T16:21:07.888Z,3.67
2019-04-20T16:23:33.058Z,5.67
2019-04-20T16:26:03.753Z,6.22
2019-04-20T16:28:32.352Z,4.85
2019-04-20T16:31:01.462Z,6.25
2019-04-20T16:33:30.499Z,6.45
2019-04-20T16:35:58.855Z,4.67
2019-04-20T16:38:30.049Z,11.88
2019-04-20T16:40:57.308Z,7.08
2019-04-20T16:43:31.942Z,3.95
2019-04-20T16:45:57.093Z,7.67
2019-04-20T16:48:26.308Z,8.03
2019-04-20T16:50:55.212Z,7.33
2019-04-20T16:53:24.743Z,8.68
2019-04-20T16:55:53.129Z,3.77
2019-04-20T16:58:21.784Z,6.42
2019-04-20T17:00:51.746Z,6.65
2019-04-20T17:03:22.901Z,8.38
2019-04-20T17:05:51.381Z,10.25
2019-04-20T17:08:20.884Z,19.55
2019-04-20T17:10:49.382Z,6.08
2019-04-20T17:13:28.457Z,3.22
2019-04-20T17:15:47.990Z,3.58
2019-04-20T17:18:16.330Z,7.12
2019-04-20T17:20:44.829Z,3.77
2019-04-20T17:23:13.165Z,5.08
2019-04-20T17:25:42.257Z,8.53
2019-04-20T17:28:17.926Z,6.22
2019-04-20T17:30:51.000Z,7.12
2019-04-20T17:33:28.372Z,4.97
2019-04-20T17:36:05.470Z,4.67
2019-04-20T17:38:36.108Z,3.02
2019-04-20T17:41:15.661Z,8.18
2019-04-20T17:43:35.109Z,5.05
2019-04-20T17:46:06.933Z,4.15
2019-04-20T17:48:37.126Z,3.77
2019-04-20T17:51:17.784Z,5.42
2019-04-20T17:53:42.984Z,6.05
2019-04-20T17:56:04.056Z,3.35
2019-04-20T17:58:35.045Z,3.35
2019-04-20T18:01:08.673Z,4.72
2019-04-20T18:04:10.777Z,3.70
2019-04-20T18:06:25.450Z,3.10
2019-04-20T18:08:56.151Z,2.58
2019-04-20T18:11:15.020Z,3.47
2019-04-20T18:13:40.035Z,4.87
2019-04-20T18:16:35.408Z,4.42
2019-04-20T18:19:00.343Z,5.00
2019-04-20T18:21:28.737Z,3.62
2019-04-20T18:23:58.256Z,4.75
2019-04-20T18:26:47.982Z,9.58
2019-04-20T18:29:15.040Z,7.15
2019-04-20T18:31:47.324Z,8.53
2019-04-20T18:34:22.697Z,4.10
2019-04-20T18:36:51.587Z,4.20
2019-04-20T18:39:29.071Z,6.95
2019-04-20T18:41:55.505Z,9.30
2019-04-20T18:44:27.717Z,7.80
2019-04-20T18:47:10.960Z,4.45
2019-04-20T18:49:36.247Z,4.53
2019-04-20T18:51:51.322Z,6.58
2019-04-20T18:54:24.307Z,3.42
2019-04-20T18:56:51.283Z,4.00
2019-04-20T18:59:24.488Z,5.70
2019-04-20T19:01:50.847Z,8.90
2019-04-20T19:04:19.706Z,8.15
2019-04-20T19:06:48.137Z,4.67
2019-04-20T19:09:21.555Z,5.97
2019-04-20T19:11:54.671Z,6.03
2019-04-20T19:14:31.517Z,3.72
2019-04-20T19:17:05.822Z,5.37
2019-04-20T19:19:36.754Z,3.15
2019-04-20T19:21:54.621Z,4.47
2019-04-20T19:24:27.698Z,6.65
2019-04-20T19:26:58.345Z,3.33
2019-04-20T19:29:31.044Z,4.62
2019-04-20T19:32:11.531Z,4.60
2019-04-20T19:34:39.236Z,4.70
2019-04-20T19:37:03.868Z,3.55
2019-04-20T19:39:39.932Z,6.08
2019-04-20T19:42:08.165Z,5.87
2019-04-20T19:44:39.570Z,4.90
2019-04-20T19:47:16.887Z,7.42
2019-04-20T19:49:35.693Z,3.20
2019-04-20T19:52:25.197Z,6.25
2019-04-20T19:54:43.085Z,8.37
2019-04-20T19:57:08.122Z,9.33
2019-04-20T19:59:34.658Z,5.90
2019-04-20T20:01:53.876Z,6.00
2019-04-20T20:04:22.201Z,6.53
2019-04-20T20:06:56.185Z,8.97
2019-04-20T20:09:21.739Z,13.10
2019-04-20T20:11:51.425Z,11.73
2019-04-20T20:14:29.266Z,9.43
2019-04-20T20:17:12.973Z,10.37
2019-04-20T20:19:32.714Z,19.77
2019-04-20T20:22:02.290Z,17.97
2019-04-20T20:24:21.290Z,13.37
2019-04-20T20:26:56.888Z,14.20
2019-04-20T20:29:28.385Z,16.40
2019-04-20T20:32:05.196Z,12.80
2019-04-20T20:34:28.968Z,14.07
2019-04-20T20:36:54.643Z,7.33
2019-04-20T20:39:26.173Z,7.10
2019-04-20T20:42:04.978Z,8.57
2019-04-20T20:44:31.791Z,5.23
2019-04-20T20:46:59.148Z,5.33
2019-04-20T20:49:38.366Z,7.70
2019-04-20T20:52:16.231Z,4.53
2019-04-20T20:54:36.047Z,5.00
2019-04-20T20:56:59.674Z,7.77
2019-04-20T20:59:30.398Z,6.57
2019-04-20T21:01:58.199Z,5.90
2019-04-20T21:04:21.538Z,4.67
2019-04-20T21:06:50.891Z,5.43
2019-04-20T21:09:20.653Z,6.17
2019-04-20T21:11:51.980Z,9.77
2019-04-20T21:14:26.149Z,7.23
2019-04-20T21:17:00.325Z,7.57
2019-04-20T21:19:34.314Z,6.03
2019-04-20T21:21:55.900Z,3.17
2019-04-20T21:24:28.658Z,12.37
2019-04-20T21:27:01.613Z,4.53
2019-04-20T21:29:35.382Z,7.47
2019-04-20T21:32:03.357Z,6.97
2019-04-20T21:34:27.513Z,5.37
2019-04-20T21:37:07.025Z,7.70
2019-04-20T21:39:37.138Z,6.87
2019-04-20T21:42:04.633Z,6.93
2019-04-20T21:44:34.792Z,5.47
2019-04-20T21:46:58.608Z,3.63
2019-04-20T21:49:43.882Z,6.33
2019-04-20T21:52:01.680Z,4.00
2019-04-20T21:54:27.820Z,4.50
2019-04-20T21:57:01.611Z,4.20
2019-04-20T21:59:32.112Z,8.17
2019-04-20T22:02:03.408Z,6.13
2019-04-20T22:04:27.162Z,7.37
2019-04-20T22:06:56.205Z,9.60
2019-04-20T22:09:32.264Z,5.00
2019-04-20T22:11:55.939Z,4.23
2019-04-20T22:14:27.893Z,8.83
2019-04-20T22:16:56.869Z,9.20
2019-04-20T22:19:34.192Z,5.87
2019-04-20T22:22:05.581Z,8.30
2019-04-20T22:24:40.051Z,5.10
2019-04-20T22:27:04.890Z,6.77
2019-04-20T22:29:25.929Z,5.87
2019-04-20T22:32:02.687Z,4.70
2019-04-20T22:34:26.162Z,5.60
2019-04-20T22:36:54.264Z,5.90
2019-04-20T22:39:31.958Z,4.77
2019-04-20T22:42:00.137Z,5.10
2019-04-20T22:44:26.571Z,9.97
2019-04-20T22:46:54.395Z,6.27
2019-04-20T22:49:39.998Z,11.60
2019-04-20T22:52:00.579Z,6.47
2019-04-20T22:54:39.706Z,7.47
2019-04-20T22:57:03.520Z,8.33
2019-04-20T22:59:36.460Z,6.10
2019-04-20T23:01:58.184Z,6.33
2019-04-20T23:04:22.754Z,5.77
2019-04-20T23:06:52.346Z,10.53
2019-04-20T23:09:22.521Z,10.20
2019-04-20T23:11:55.853Z,6.77
2019-04-20T23:14:22.368Z,8.00
2019-04-20T23:16:53.946Z,6.03
2019-04-20T23:19:32.321Z,6.67
2019-04-20T23:21:57.261Z,11.90
2019-04-20T23:24:21.913Z,7.70
2019-04-20T23:26:50.854Z,5.57
2019-04-20T23:29:21.406Z,7.17
2019-04-20T23:31:55.650Z,4.83
2019-04-20T23:34:24.724Z,5.43
2019-04-20T23:36:50.805Z,6.23
2019-04-20T23:39:22.769Z,6.53
2019-04-20T23:41:56.666Z,4.03
2019-04-20T23:44:33.642Z,4.73
2019-04-20T23:47:10.917Z,5.67
2019-04-20T23:49:54.158Z,6.67
2019-04-20T23:52:33.780Z,7.23
2019-04-20T23:54:37.593Z,7.63
2019-04-20T23:57:05.917Z,5.03
2019-04-20T23:59:41.115Z,7.30
